x

Pt Arena - 19nm North Of Point Arena, Ca (46014) Wave Buoy

4:50pm - Fri 27th Mar 2015 All times are PDT. -7 hours from GMT.

  • Sig Wave height 7.5ft
  • Peak Period 14s
  • Average Period 9s
  • Wind
    13mph, 16mph gusts
  • Sea Temp 56°f
  • Sea Pressure 1023.1mb
  • Pt Arena - 19nm North Of Point Arena, Ca
  • Pt Arena - 19nm North Of Point Arena, Ca

More Historic Weather Station data

Upgrade to MSW Pro to gain access to the past 30 days of data for over 8000 Wavebouys and Weather Stations around the globe.

Join Pro

Comparision Forecast

View Surf forecast
   
Fri 03/27 4:50pm 7.5ft 14s 9s 13 16 mph 1023.1mb 56f
3:50pm 7.5ft 14s 9s 11 13 mph 1023.1mb 56f
2:50pm 7.5ft 12s 9s 13
mph
1023.3mb 56f
1:50pm 7ft 14s 9s 11 13 mph 1023.6mb 55f
12:50pm 7ft 13s 8s 11 13 mph 1023.9mb 56f
11:50am 7ft 14s 8s 13 16 mph 1023.6mb 55f
10:50am 6ft 12s 7s 13 16 mph 1023.3mb 55f
9:50am 6.5ft 11s 8s 13 16 mph 1022.6mb 55f
8:50am 6.5ft 12s 8s 13 18 mph 1021.7mb 56f
7:50am 6.5ft 11s 8s 11 18 mph 1021.1mb 56f
6:50am 6.5ft 11s 8s 7 11 mph 1020.4mb 56f
5:50am 6.5ft 11s 8s 9 11 mph 1020.1mb 56f
4:50am 6.5ft 11s 8s 7 11 mph 1020.1mb 56f
3:50am 6.5ft 11s 8s 11 13 mph 1020.4mb 56f
2:50am 6.5ft 11s 8s 11 16 mph 1020.6mb 56f
1:50am 6.5ft 11s 8s 9 13 mph 1020.6mb 56f
12:50am 6.5ft 11s 8s 9 13 mph 1020.5mb 56f
Thu 03/26 11:50pm 7ft 11s 8s 7 11 mph 1020.4mb 56f
10:50pm 7ft 12s 8s 9 11 mph 1020.5mb 56f
9:50pm 6.5ft 11s 8s 11 13 mph 1020.4mb 56f
8:50pm 6.5ft 12s 8s 9 11 mph 1020.3mb 56f
7:50pm 6ft 11s 8s 11 13 mph 1019.8mb 56f
6:50pm 6ft 11s 7s 11 16 mph 1019.7mb 56f
5:50pm 6ft 12s 7s 11 16 mph 1019.8mb 56f
4:50pm 6.5ft 11s 7s 11 13 mph 1020.2mb 56f
3:50pm 6ft 11s 7s 11 13 mph 1020.5mb 56f
2:50pm 7ft 11s 7s 11 13 mph 1021mb 56f
1:50pm 6.5ft 11s 7s 9 11 mph 1021.8mb 56f
12:50pm 7ft 11s 7s 7 9 mph 1022.2mb 56f
11:50am 7ft 11s 7s 4 7 mph 1022.4mb 56f
10:50am 7ft 11s 7s 4 9 mph 1022.8mb 56f
9:50am 7ft 11s 7s 9 11 mph 1022.4mb 55f
8:50am 7ft 11s 7s 9 11 mph 1022.1mb 55f
7:50am 6.5ft 11s 7s 9 11 mph 1021.9mb 55f
6:50am 6.5ft 11s 7s 13 16 mph 1021.3mb 55f
5:50am 7ft 11s 7s 13 18 mph 1021.2mb 55f
4:50am 7ft 11s 7s 13 16 mph 1021.2mb 55f
3:50am 6ft 11s 7s 13 16 mph 1021.3mb 55f
2:50am 6.5ft 11s 6s 11 13 mph 1021.5mb 55f
1:50am 7.5ft 11s 7s 13 16 mph 1021.8mb 55f
12:50am 7ft 11s 6s 18 20 mph 1022.3mb 55f
Wed 03/25 11:50pm 7ft 6s 6s 18 22 mph 1022.9mb 55f
10:50pm 7ft 10s 6s 20 25 mph 1023.5mb 55f
9:50pm 6.5ft 11s 6s 22 27 mph 1023.8mb 55f
8:50pm 6ft 11s 6s 18 20 mph 1024.1mb 55f
7:50pm 5ft 11s 6s 18 20 mph 1023.7mb 55f
6:50pm 6ft 11s 6s 18 20 mph 1023.9mb 55f
5:50pm 5.5ft 10s 6s 18 20 mph 1024.1mb 55f
4:50pm 6ft 11s 6s 16 18 mph 1024.5mb 55f
3:50pm 5.5ft 10s 6s 18 22 mph 1024.6mb 55f
2:50pm 6ft 11s 7s 18 20 mph 1024.8mb 55f
1:50pm 6ft 11s 7s 16 18 mph 1025.4mb 55f
12:50pm 5.5ft 11s 7s 16 18 mph 1025.7mb 55f
11:50am 6ft 11s 7s 16 18 mph 1026.3mb 55f
10:50am 6ft 10s 7s 16 20 mph 1026.2mb 55f
9:50am 6ft 11s 8s 16 18 mph 1025.9mb 55f
8:50am 6.5ft 11s 8s 16 18 mph 1025.4mb 55f
7:50am 6ft 12s 8s 18 20 mph 1025.2mb 55f
6:50am 6.5ft 11s 8s 16 18 mph 1024.9mb 56f
5:50am 6ft 12s 7s 13 16 mph 1025mb 55f
4:50am 6ft 12s 8s 13 18 mph 1025mb 56f
3:50am 6.5ft 11s 8s 11 13 mph 1025.1mb 56f
2:50am 8ft 12s 8s 11 13 mph 1025.7mb 56f
1:50am 8ft 11s 9s 11 13 mph 1025.9mb 56f
12:50am 8ft 12s 8s 9 11 mph 1026.3mb 56f
Tue 03/24 11:50pm 7.5ft 11s 8s 11 13 mph 1026.9mb 56f
10:50pm 8ft 12s 8s 9 11 mph 1026.9mb 56f
9:50pm 8ft 11s 9s 9 13 mph 1027mb 56f
8:50pm 8.5ft 11s 9s 9
mph
1026.7mb 56f
7:50pm 8ft 11s 9s 9
mph
1026mb 56f
6:50pm 8ft 12s 9s 9
mph
1025.9mb 56f
5:50pm 8ft 12s 8s 7 9 mph 1025.7mb 56f
4:50pm 7.5ft 12s 8s 7 9 mph 1025.8mb 56f
3:50pm 8.5ft 12s 8s 7 9 mph 1026mb 57f
2:50pm 7.5ft 11s 8s 4 7 mph 1026.2mb 57f
1:50pm 8ft 11s 8s 4 7 mph 1026.5mb 56f
12:50pm 7.5ft 12s 8s 4 7 mph 1026.7mb 56f
11:50am 7ft 12s 8s 7
mph
1027.4mb 56f
10:50am 8ft 12s 9s 4 7 mph 1027mb 56f
9:50am 7.5ft 13s 8s 9 11 mph 1026.4mb 56f
8:50am 8ft 11s 8s 7 11 mph 1025.8mb 56f
7:50am 7ft 13s 8s 9 11 mph 1025.4mb 56f
6:50am 6.5ft 11s 8s 7 9 mph 1024.8mb 56f
5:50am 7ft 11s 8s 9 11 mph 1024.7mb 56f
4:50am 7ft 12s 8s 7 9 mph 1024.6mb 56f
3:50am 7.5ft 13s 8s 7 9 mph 1024.9mb 56f
2:50am 7ft 12s 7s 9 11 mph 1025.3mb 56f
1:50am 7.5ft 13s 8s 9 11 mph 1025.4mb 56f
12:50am 7ft 13s 8s 11 13 mph 1025.5mb 56f